Time;durP1;ratioP1;P1;durP2;ratioP2;P2;SDS_P1;SDS_P2;PMS_P1;PMS_P2;Temp;Humidity;BMP_temperature;BMP_pressure;BME280_temperature;BME280_humidity;BME280_pressure;Samples;Min_cycle;Max_cycle;Signal;HPM_P1;HPM_P2
2021/12/13 00:00:11;;;;;;;6.43;1.75;;;22.30;99.90;;;;;;5099438;28;20574;-90
2021/12/13 00:02:50;;;;;;;5.38;1.40;;;22.50;99.90;;;;;;5121572;27;20190;-90
2021/12/13 00:05:28;;;;;;;5.20;1.45;;;22.60;99.90;;;;;;5138481;27;20656;-90
2021/12/13 00:08:04;;;;;;;9.55;2.05;;;22.70;99.90;;;;;;5122040;27;20724;-90
2021/12/13 00:10:42;;;;;;;5.78;1.73;;;22.80;99.90;;;;;;5144323;27;20215;-91
2021/12/13 00:13:17;;;;;;;5.90;1.70;;;23.00;99.90;;;;;;5137768;27;20197;-91
2021/12/13 00:15:52;;;;;;;5.20;1.55;;;23.30;99.90;;;;;;5136493;27;20202;-91
2021/12/13 00:18:29;;;;;;;6.85;1.50;;;23.30;99.90;;;;;;5124434;27;20190;-91
2021/12/13 00:21:08;;;;;;;6.85;1.80;;;23.40;99.90;;;;;;5098112;28;20315;-91
2021/12/13 00:23:47;;;;;;;9.48;2.13;;;23.50;99.90;;;;;;5121580;28;20229;-90
2021/12/13 00:26:31;;;;;;;9.63;2.05;;;23.80;99.90;;;;;;5135739;27;20189;-90
2021/12/13 00:29:10;;;;;;;7.32;1.80;;;23.90;99.90;;;;;;5117763;28;20244;-90
2021/12/13 00:31:55;;;;;;;6.03;1.50;;;24.00;99.90;;;;;;5118340;28;20626;-92
2021/12/13 00:34:36;;;;;;;6.60;2.10;;;23.90;99.90;;;;;;5130835;27;20266;-89
2021/12/13 00:37:12;;;;;;;6.10;1.70;;;24.00;99.90;;;;;;5116822;28;20186;-91
2021/12/13 00:39:49;;;;;;;9.52;1.80;;;24.10;99.90;;;;;;5099937;28;20210;-91
2021/12/13 00:42:26;;;;;;;6.70;1.90;;;24.30;99.90;;;;;;5116118;28;20521;-91
2021/12/13 00:45:03;;;;;;;7.95;1.95;;;24.40;99.90;;;;;;5116048;28;20246;-92
2021/12/13 00:47:36;;;;;;;7.40;1.95;;;24.50;99.90;;;;;;5117010;28;20277;-92
2021/12/13 00:50:13;;;;;;;6.90;2.00;;;24.60;99.90;;;;;;5116094;28;20209;-92
2021/12/13 00:52:46;;;;;;;8.38;1.90;;;24.70;99.90;;;;;;5115896;28;20222;-92
2021/12/13 00:55:19;;;;;;;6.63;1.90;;;24.80;99.90;;;;;;5134909;27;20220;-91
2021/12/13 00:57:54;;;;;;;6.65;1.70;;;24.90;99.90;;;;;;5137460;27;20193;-92
2021/12/13 01:00:33;;;;;;;9.75;1.80;;;25.00;99.90;;;;;;5118978;27;20269;-91
2021/12/13 01:03:07;;;;;;;5.35;1.80;;;25.10;99.90;;;;;;5121667;28;20232;-90
2021/12/13 01:06:17;;;;;;;7.43;2.08;;;25.10;99.90;;;;;;5138479;27;20196;-91
2021/12/13 01:10:03;;;;;;;7.47;1.92;;;25.10;99.90;;;;;;5132179;27;20250;-91
2021/12/13 01:12:35;;;;;;;6.60;1.60;;;25.00;99.90;;;;;;5120053;28;20199;-90
2021/12/13 01:15:14;;;;;;;7.75;2.08;;;25.10;99.90;;;;;;5140394;27;20204;-91
2021/12/13 01:17:54;;;;;;;6.38;1.67;;;25.10;99.90;;;;;;5139458;27;20225;-89
2021/12/13 01:20:33;;;;;;;6.43;1.60;;;25.10;99.90;;;;;;5140413;27;20217;-92
2021/12/13 01:23:13;;;;;;;7.07;1.88;;;25.20;99.90;;;;;;5139151;27;20225;-91
2021/12/13 01:26:00;;;;;;;6.85;1.80;;;25.30;99.90;;;;;;5138004;27;20198;-92
2021/12/13 01:28:34;;;;;;;4.50;1.52;;;25.40;99.90;;;;;;5140625;27;20223;-90
2021/12/13 01:31:11;;;;;;;6.63;1.85;;;25.20;99.90;;;;;;5140720;27;20197;-91
2021/12/13 01:33:46;;;;;;;9.20;2.03;;;25.20;99.90;;;;;;5132366;27;20293;-91
2021/12/13 01:36:22;;;;;;;4.45;1.17;;;25.20;99.90;;;;;;5138323;27;20201;-91
2021/12/13 01:38:56;;;;;;;5.38;1.70;;;25.20;99.90;;;;;;5140970;27;20209;-90
2021/12/13 01:41:31;;;;;;;5.72;1.77;;;25.20;99.90;;;;;;5127093;27;20255;-91
2021/12/13 01:44:07;;;;;;;8.05;1.60;;;25.20;99.90;;;;;;5136686;28;20224;-90
2021/12/13 01:46:46;;;;;;;6.82;1.63;;;25.20;99.90;;;;;;5119465;28;20221;-90
2021/12/13 01:49:19;;;;;;;5.93;1.85;;;25.20;99.90;;;;;;5118972;28;20206;-91
2021/12/13 01:51:51;;;;;;;7.18;1.98;;;25.20;99.90;;;;;;5128251;27;20202;-92
2021/12/13 01:54:24;;;;;;;7.70;2.10;;;25.20;99.90;;;;;;5140996;27;20251;-91
2021/12/13 01:57:10;;;;;;;6.00;1.80;;;25.20;99.90;;;;;;5140076;27;20194;-91
2021/12/13 01:59:50;;;;;;;9.60;1.90;;;25.30;99.90;;;;;;5118750;28;20263;-91
2021/12/13 02:02:33;;;;;;;5.97;1.83;;;25.50;99.90;;;;;;5119038;28;20203;-90
2021/12/13 02:05:11;;;;;;;7.47;1.67;;;25.40;99.90;;;;;;5136555;27;20202;-90
2021/12/13 02:07:48;;;;;;;6.47;1.77;;;25.40;99.90;;;;;;5147132;27;20231;-89
2021/12/13 02:10:25;;;;;;;6.82;1.92;;;25.40;99.90;;;;;;5122164;27;20210;-90
2021/12/13 02:13:00;;;;;;;8.40;2.10;;;25.40;99.90;;;;;;5133734;27;20202;-90
2021/12/13 02:18:31;;;;;;;4.60;1.65;;;25.40;99.90;;;;;;5145161;27;20225;-91
2021/12/13 02:21:11;;;;;;;6.43;1.58;;;25.40;99.90;;;;;;5144926;27;20220;-90
2021/12/13 02:23:50;;;;;;;7.90;2.22;;;25.40;99.90;;;;;;5139811;27;20283;-90
2021/12/13 02:26:28;;;;;;;7.47;2.25;;;25.60;99.90;;;;;;5140076;27;20243;-90
2021/12/13 02:29:08;;;;;;;8.95;2.20;;;25.70;99.90;;;;;;5123925;27;20202;-90
2021/12/13 02:31:42;;;;;;;5.00;1.70;;;25.70;99.90;;;;;;5140524;27;20318;-91
2021/12/13 02:34:17;;;;;;;6.57;2.40;;;25.80;99.90;;;;;;5121550;27;20197;-92
2021/12/13 02:36:55;;;;;;;6.50;1.92;;;25.80;99.90;;;;;;5154908;27;20289;-91
2021/12/13 02:39:32;;;;;;;8.02;2.05;;;25.80;99.90;;;;;;5162358;27;20567;-90
2021/12/13 02:42:08;;;;;;;7.88;1.88;;;25.70;99.90;;;;;;5159834;27;20230;-90
2021/12/13 02:44:42;;;;;;;7.70;1.85;;;25.70;99.90;;;;;;5141165;27;20197;-90
2021/12/13 02:47:17;;;;;;;11.80;2.13;;;25.80;99.90;;;;;;5141501;27;20225;-90
2021/12/13 02:49:55;;;;;;;9.63;1.98;;;25.70;99.90;;;;;;5122309;27;20226;-91
2021/12/13 02:52:29;;;;;;;9.80;2.20;;;25.80;99.90;;;;;;5138710;27;20668;-91
2021/12/13 02:55:08;;;;;;;10.73;2.25;;;25.90;99.90;;;;;;5140007;27;20574;-90
2021/12/13 02:57:42;;;;;;;12.23;2.10;;;25.90;99.90;;;;;;5141736;27;20201;-91
2021/12/13 03:00:19;;;;;;;8.10;1.92;;;26.00;99.90;;;;;;5138191;27;20194;-88
2021/12/13 03:02:56;;;;;;;7.60;2.00;;;26.10;99.90;;;;;;5130126;27;20215;-91
2021/12/13 03:05:33;;;;;;;11.93;2.10;;;26.10;99.90;;;;;;5120149;27;20194;-90
2021/12/13 03:08:10;;;;;;;9.02;2.30;;;26.20;99.90;;;;;;5139707;27;20680;-91
2021/12/13 03:10:49;;;;;;;8.00;2.03;;;26.20;99.90;;;;;;5139264;27;20266;-91
2021/12/13 03:13:22;;;;;;;6.55;1.90;;;26.20;99.90;;;;;;5120293;27;20635;-91
2021/12/13 03:16:00;;;;;;;6.03;1.60;;;26.30;99.90;;;;;;5138116;27;20224;-92
2021/12/13 03:18:43;;;;;;;6.00;1.92;;;26.40;99.90;;;;;;5118992;28;20676;-91
2021/12/13 03:21:42;;;;;;;9.90;1.98;;;26.50;99.90;;;;;;5125029;27;20251;-90
2021/12/13 03:24:40;;;;;;;9.35;1.92;;;26.50;99.90;;;;;;5137802;27;20696;-90
2021/12/13 03:27:36;;;;;;;9.40;1.95;;;26.50;99.90;;;;;;5138218;27;20198;-89
2021/12/13 03:30:12;;;;;;;5.03;1.83;;;26.50;99.90;;;;;;5112679;27;20194;-91
2021/12/13 03:32:51;;;;;;;7.65;1.90;;;26.60;99.90;;;;;;5121599;27;20216;-91
2021/12/13 03:35:27;;;;;;;5.63;1.90;;;26.70;99.90;;;;;;5132619;27;20666;-91
2021/12/13 03:38:04;;;;;;;6.05;1.95;;;26.60;99.90;;;;;;5118021;28;20251;-91
2021/12/13 03:40:36;;;;;;;8.10;2.00;;;26.70;99.90;;;;;;5116706;28;20198;-91
2021/12/13 03:43:17;;;;;;;9.00;1.95;;;26.70;99.90;;;;;;5117677;28;20195;-91
2021/12/13 03:45:50;;;;;;;10.45;1.95;;;26.60;99.90;;;;;;5096592;28;20213;-91
2021/12/13 03:48:25;;;;;;;6.95;1.90;;;26.70;99.90;;;;;;5114259;28;20198;-91
2021/12/13 03:51:00;;;;;;;6.13;1.90;;;26.70;99.90;;;;;;5115062;27;20661;-92
2021/12/13 03:53:33;;;;;;;6.85;2.13;;;26.70;99.90;;;;;;5114037;28;20210;-91
2021/12/13 03:56:08;;;;;;;5.47;1.50;;;26.70;99.90;;;;;;5116375;28;20201;-92
2021/12/13 03:58:48;;;;;;;6.22;1.80;;;26.70;99.90;;;;;;5115873;28;20187;-91
2021/12/13 04:01:26;;;;;;;6.18;1.98;;;26.70;99.90;;;;;;5117910;28;20271;-92
2021/12/13 04:04:00;;;;;;;6.45;1.80;;;26.70;99.90;;;;;;5119707;28;20206;-91
2021/12/13 04:06:32;;;;;;;7.07;1.70;;;26.60;99.90;;;;;;5119673;27;20182;-91
2021/12/13 04:09:04;;;;;;;8.70;1.80;;;26.60;99.90;;;;;;5135998;27;20246;-92
2021/12/13 04:11:34;;;;;;;7.78;1.58;;;26.60;99.90;;;;;;5134647;27;20571;-92
2021/12/13 04:14:14;;;;;;;8.15;2.03;;;26.50;99.90;;;;;;5135593;27;20198;-92
2021/12/13 04:17:03;;;;;;;6.82;1.83;;;26.50;99.90;;;;;;5145390;27;20195;-89
2021/12/13 04:19:47;;;;;;;9.85;1.92;;;26.50;99.90;;;;;;5114147;28;20266;-93
2021/12/13 04:22:22;;;;;;;7.07;1.75;;;26.50;99.90;;;;;;5113565;28;20269;-91
2021/12/13 04:24:56;;;;;;;6.32;1.95;;;26.50;99.90;;;;;;5117306;27;20225;-92
2021/12/13 04:27:30;;;;;;;6.65;1.90;;;26.60;99.90;;;;;;5113297;28;20247;-93
2021/12/13 04:30:11;;;;;;;8.13;1.85;;;26.70;99.90;;;;;;5113985;28;20197;-92
2021/12/13 04:32:48;;;;;;;7.97;1.70;;;26.80;99.90;;;;;;5113198;28;20198;-92
2021/12/13 04:35:20;;;;;;;7.82;1.90;;;27.00;99.90;;;;;;5112850;28;20194;-92
2021/12/13 04:37:55;;;;;;;8.27;1.90;;;27.10;99.90;;;;;;5125485;27;20190;-89
2021/12/13 04:40:28;;;;;;;4.88;1.70;;;27.20;99.90;;;;;;5133988;27;20197;-92
2021/12/13 04:43:03;;;;;;;8.05;2.03;;;27.20;99.90;;;;;;5097871;28;20244;-91
2021/12/13 04:45:38;;;;;;;8.40;1.85;;;27.20;99.90;;;;;;5113355;28;20190;-93
2021/12/13 04:48:14;;;;;;;11.25;2.15;;;27.20;99.90;;;;;;5094765;28;20190;-93
2021/12/13 04:50:51;;;;;;;5.35;1.50;;;27.10;99.90;;;;;;5113906;28;20262;-92
2021/12/13 04:53:26;;;;;;;10.18;2.20;;;27.00;99.90;;;;;;5113395;28;20214;-92
2021/12/13 04:56:01;;;;;;;7.70;1.80;;;27.10;99.90;;;;;;5114946;28;20279;-91
2021/12/13 04:58:33;;;;;;;6.38;2.10;;;27.20;99.90;;;;;;5120861;28;20201;-91
2021/12/13 05:01:11;;;;;;;8.52;1.80;;;27.30;99.90;;;;;;5113596;28;20282;-91
2021/12/13 05:03:45;;;;;;;6.43;1.80;;;27.50;99.90;;;;;;5113922;28;20198;-92
2021/12/13 05:06:19;;;;;;;4.28;1.70;;;27.60;99.90;;;;;;5112805;28;20259;-91
2021/12/13 05:08:53;;;;;;;8.43;1.83;;;27.80;99.90;;;;;;5110428;28;20254;-91
2021/12/13 05:11:25;;;;;;;7.28;2.00;;;27.90;99.90;;;;;;5135410;27;20222;-92
2021/12/13 05:13:59;;;;;;;5.10;1.83;;;28.00;99.90;;;;;;5133180;27;20201;-91
2021/12/13 05:16:42;;;;;;;4.85;1.50;;;27.90;99.90;;;;;;5114668;28;20289;-91
2021/12/13 05:19:18;;;;;;;8.20;1.88;;;28.00;99.90;;;;;;5133852;27;20210;-91
2021/12/13 05:21:51;;;;;;;6.25;1.90;;;28.10;99.90;;;;;;5133656;27;20224;-91
2021/12/13 05:24:26;;;;;;;8.27;1.70;;;28.30;99.90;;;;;;5132443;27;20226;-91
2021/12/13 05:26:58;;;;;;;8.50;2.00;;;28.40;99.90;;;;;;5133630;28;20662;-91
2021/12/13 05:29:32;;;;;;;6.93;1.92;;;28.50;99.90;;;;;;5134247;28;20235;-91
2021/12/13 05:32:12;;;;;;;6.13;1.60;;;28.70;99.90;;;;;;5121137;28;20213;-91
2021/12/13 05:34:49;;;;;;;6.82;1.70;;;28.80;99.90;;;;;;5120997;28;20203;-91
2021/12/13 05:37:24;;;;;;;6.85;1.85;;;28.80;99.90;;;;;;5116394;28;20206;-89
2021/12/13 05:40:02;;;;;;;7.03;1.90;;;29.00;99.90;;;;;;5119846;27;20259;-91
2021/12/13 05:42:42;;;;;;;5.60;1.63;;;29.30;99.90;;;;;;5134419;27;20229;-90
2021/12/13 05:45:17;;;;;;;6.07;1.48;;;29.50;99.90;;;;;;5137144;27;20205;-91
2021/12/13 05:48:04;;;;;;;5.13;1.63;;;29.80;99.90;;;;;;5135153;27;20201;-90
2021/12/13 05:50:41;;;;;;;6.22;1.65;;;29.90;99.90;;;;;;5125285;27;20225;-91
2021/12/13 05:53:15;;;;;;;4.53;1.42;;;30.10;99.90;;;;;;5119321;28;20218;-91
2021/12/13 05:56:00;;;;;;;5.80;1.73;;;30.10;99.90;;;;;;5117659;28;20197;-91
2021/12/13 05:58:47;;;;;;;6.15;1.42;;;30.10;99.90;;;;;;5126581;28;20202;-91
2021/12/13 06:01:23;;;;;;;7.55;1.38;;;30.30;99.90;;;;;;5117116;27;20295;-91
2021/12/13 06:04:12;;;;;;;5.30;1.50;;;30.20;99.90;;;;;;5099119;28;20206;-89
2021/12/13 06:06:52;;;;;;;6.55;1.75;;;30.00;99.90;;;;;;5101233;28;20191;-89
2021/12/13 06:09:53;;;;;;;4.80;1.80;;;30.00;99.90;;;;;;5128381;27;20201;-91
2021/12/13 06:12:32;;;;;;;6.65;1.42;;;29.90;99.90;;;;;;5138178;27;20208;-90
2021/12/13 06:15:29;;;;;;;6.65;1.73;;;29.70;99.90;;;;;;5137675;27;20254;-90
2021/12/13 06:18:17;;;;;;;5.43;1.65;;;29.50;99.90;;;;;;5133541;27;20208;-90
2021/12/13 06:20:58;;;;;;;7.93;1.70;;;29.40;99.90;;;;;;5135919;27;20692;-91
2021/12/13 06:23:33;;;;;;;5.28;1.65;;;29.40;99.90;;;;;;5135465;27;20325;-90
2021/12/13 06:26:07;;;;;;;4.40;1.30;;;29.40;99.90;;;;;;5131334;27;20190;-91
2021/12/13 06:28:40;;;;;;;4.72;1.42;;;29.50;99.90;;;;;;5121659;27;20209;-89
2021/12/13 06:31:13;;;;;;;6.72;1.52;;;29.60;99.90;;;;;;5116950;28;20542;-89
2021/12/13 06:33:53;;;;;;;7.78;1.67;;;29.60;99.90;;;;;;5117320;28;20202;-89
2021/12/13 06:36:35;;;;;;;8.27;1.60;;;29.80;99.90;;;;;;5120594;27;20186;-89
2021/12/13 06:39:09;;;;;;;6.75;1.83;;;30.20;99.90;;;;;;5136860;27;20197;-90
2021/12/13 06:41:47;;;;;;;6.32;1.45;;;30.30;99.90;;;;;;5116639;27;20280;-88
2021/12/13 06:44:26;;;;;;;4.53;1.25;;;30.60;99.90;;;;;;5117020;28;20214;-89
2021/12/13 06:47:02;;;;;;;7.05;1.75;;;31.10;99.90;;;;;;5127133;28;20195;-90
2021/12/13 06:49:37;;;;;;;6.75;1.65;;;31.20;99.20;;;;;;5132470;28;20187;-88
2021/12/13 06:52:12;;;;;;;6.50;1.55;;;31.30;98.30;;;;;;5120454;28;20202;-90
2021/12/13 06:54:45;;;;;;;5.47;1.63;;;31.70;98.40;;;;;;5134248;27;20208;-90
2021/12/13 06:57:20;;;;;;;8.27;1.58;;;31.90;98.10;;;;;;5135746;27;20194;-90
2021/12/13 06:59:59;;;;;;;5.85;1.80;;;32.20;97.40;;;;;;5136790;27;20203;-90
2021/12/13 07:02:38;;;;;;;5.65;1.60;;;32.10;96.60;;;;;;5135894;27;20225;-90
2021/12/13 07:05:12;;;;;;;5.97;1.88;;;32.50;95.80;;;;;;5137382;27;20426;-89
2021/12/13 07:07:55;;;;;;;10.20;2.85;;;32.30;95.80;;;;;;5137161;27;20198;-89
2021/12/13 07:10:30;;;;;;;5.57;2.70;;;32.40;94.70;;;;;;5136288;27;20186;-90
2021/12/13 07:13:05;;;;;;;9.20;2.17;;;32.40;94.40;;;;;;5117936;27;20238;-90
2021/12/13 07:15:41;;;;;;;6.70;2.10;;;32.20;94.10;;;;;;5121580;27;20198;-89
2021/12/13 07:18:29;;;;;;;5.07;1.45;;;32.40;94.00;;;;;;5115310;28;20198;-89
2021/12/13 07:21:08;;;;;;;4.40;1.55;;;32.40;94.00;;;;;;5116223;28;20203;-89
2021/12/13 07:24:02;;;;;;;4.60;1.50;;;32.10;93.80;;;;;;5116342;28;20230;-89
2021/12/13 07:26:39;;;;;;;4.90;1.45;;;32.20;93.70;;;;;;5114759;28;20199;-90
2021/12/13 07:29:15;;;;;;;5.40;1.63;;;31.70;93.50;;;;;;5133886;27;20652;-89
2021/12/13 07:31:50;;;;;;;6.05;1.48;;;31.80;94.40;;;;;;5111638;28;20202;-89
2021/12/13 07:34:23;;;;;;;6.25;1.70;;;32.00;93.70;;;;;;5114383;28;20202;-88
2021/12/13 07:36:57;;;;;;;5.53;1.58;;;32.00;93.10;;;;;;5119174;28;20191;-89
2021/12/13 07:39:34;;;;;;;5.38;1.77;;;32.00;93.40;;;;;;5127399;27;20224;-88
2021/12/13 07:42:09;;;;;;;4.15;1.30;;;31.80;93.90;;;;;;5115461;28;20708;-87
2021/12/13 07:44:43;;;;;;;6.28;1.63;;;31.60;94.00;;;;;;5113557;28;20202;-89
2021/12/13 07:47:19;;;;;;;7.72;1.60;;;31.60;93.50;;;;;;5115213;28;20203;-89
2021/12/13 07:49:54;;;;;;;8.68;1.98;;;31.50;94.10;;;;;;5110851;27;20447;-88
2021/12/13 07:52:29;;;;;;;5.50;1.33;;;31.40;94.10;;;;;;5139819;27;20293;-88
2021/12/13 07:55:17;;;;;;;5.85;1.60;;;31.20;94.40;;;;;;5140117;27;20197;-88
2021/12/13 07:57:49;;;;;;;5.10;1.58;;;31.00;94.90;;;;;;5135228;27;20253;-88
2021/12/13 08:00:28;;;;;;;8.80;2.10;;;30.60;95.40;;;;;;5116901;27;20672;-88
2021/12/13 08:03:02;;;;;;;6.43;2.10;;;30.00;95.70;;;;;;5135449;27;20221;-89
2021/12/13 08:05:38;;;;;;;6.40;1.60;;;29.60;96.80;;;;;;5151006;27;20210;-88
2021/12/13 08:08:21;;;;;;;6.80;2.42;;;29.00;98.30;;;;;;5147244;27;20200;-89
2021/12/13 08:10:59;;;;;;;7.65;3.40;;;28.50;99.10;;;;;;5108148;28;20202;-89
2021/12/13 08:13:33;;;;;;;13.82;8.68;;;27.80;99.90;;;;;;5122467;27;20201;-89
2021/12/13 08:16:09;;;;;;;21.33;13.15;;;27.40;99.90;;;;;;5133532;27;20193;-89
2021/12/13 08:18:42;;;;;;;24.38;14.80;;;26.90;99.90;;;;;;5133622;27;20682;-88
2021/12/13 08:21:22;;;;;;;17.42;9.32;;;26.50;99.90;;;;;;5134012;27;20194;-88
2021/12/13 08:23:56;;;;;;;7.60;2.40;;;26.00;99.90;;;;;;5116619;27;20698;-89
2021/12/13 08:26:35;;;;;;;6.82;2.00;;;25.60;99.90;;;;;;5113570;28;20195;-90
2021/12/13 08:29:12;;;;;;;6.43;1.92;;;25.30;99.90;;;;;;5116939;27;20197;-90
2021/12/13 08:31:48;;;;;;;7.32;1.55;;;25.00;99.90;;;;;;5134119;27;20197;-89
2021/12/13 08:34:27;;;;;;;6.30;1.50;;;24.80;99.90;;;;;;5118061;27;20213;-88
2021/12/13 08:36:59;;;;;;;6.70;1.77;;;24.50;99.90;;;;;;5115614;27;20213;-90
2021/12/13 08:39:34;;;;;;;9.40;1.73;;;24.40;99.90;;;;;;5119292;27;20700;-87
2021/12/13 08:42:11;;;;;;;5.32;1.70;;;24.30;99.90;;;;;;5112451;27;20193;-88
2021/12/13 08:44:46;;;;;;;7.32;1.65;;;24.10;99.90;;;;;;5114299;27;20514;-88
2021/12/13 08:47:20;;;;;;;9.10;1.98;;;24.00;99.90;;;;;;5114513;27;20186;-87
2021/12/13 08:49:56;;;;;;;8.55;1.90;;;23.80;99.90;;;;;;5114430;27;20228;-89
2021/12/13 08:52:30;;;;;;;6.10;1.70;;;23.70;99.90;;;;;;5118046;27;20202;-89
2021/12/13 08:55:16;;;;;;;8.55;1.92;;;23.60;99.90;;;;;;5115572;28;20198;-88
2021/12/13 08:57:56;;;;;;;8.27;1.50;;;23.50;99.90;;;;;;5114948;28;20202;-90
2021/12/13 09:00:38;;;;;;;6.75;1.90;;;23.40;99.90;;;;;;5113954;28;20198;-88
2021/12/13 09:03:26;;;;;;;6.10;1.88;;;23.20;99.90;;;;;;5113269;27;20274;-89
2021/12/13 09:06:04;;;;;;;5.80;1.80;;;23.10;99.90;;;;;;5115168;28;20186;-88
2021/12/13 09:08:38;;;;;;;6.90;1.73;;;23.10;99.90;;;;;;5120812;28;20273;-89
2021/12/13 09:11:24;;;;;;;7.20;1.60;;;23.10;99.90;;;;;;5131323;28;20198;-91
2021/12/13 09:14:02;;;;;;;9.82;1.80;;;23.00;99.90;;;;;;5136476;28;20204;-91
2021/12/13 09:16:52;;;;;;;7.57;1.88;;;23.00;99.90;;;;;;5123003;27;20267;-90
2021/12/13 09:19:27;;;;;;;9.05;1.67;;;22.80;99.90;;;;;;5123339;27;20202;-90
2021/12/13 09:22:04;;;;;;;7.65;1.73;;;22.70;99.90;;;;;;5132211;27;20174;-91
2021/12/13 09:24:41;;;;;;;8.38;1.90;;;22.80;99.90;;;;;;5141285;27;20229;-90
2021/12/13 09:27:34;;;;;;;6.20;1.95;;;22.80;99.90;;;;;;5131997;27;20186;-91
2021/12/13 09:30:25;;;;;;;8.13;2.03;;;22.70;99.90;;;;;;5130288;27;20230;-90
2021/12/13 09:33:01;;;;;;;9.73;2.08;;;22.80;99.90;;;;;;5128423;27;20178;-91
2021/12/13 09:35:42;;;;;;;7.18;1.90;;;22.70;99.90;;;;;;5127239;27;20221;-90
2021/12/13 09:38:47;;;;;;;6.65;1.70;;;22.70;99.90;;;;;;5131090;27;20679;-89
2021/12/13 09:41:27;;;;;;;5.75;1.60;;;22.70;99.90;;;;;;5123973;27;20746;-91
2021/12/13 09:44:02;;;;;;;7.90;1.90;;;22.70;99.90;;;;;;5131614;27;20228;-90
2021/12/13 09:46:41;;;;;;;7.63;1.80;;;22.70;99.90;;;;;;5128460;27;20182;-90
2021/12/13 09:49:15;;;;;;;8.10;1.52;;;22.60;99.90;;;;;;5151716;27;20183;-90
2021/12/13 09:51:51;;;;;;;4.68;1.60;;;22.50;99.90;;;;;;5127519;27;20199;-91
2021/12/13 09:54:30;;;;;;;6.28;1.60;;;22.50;99.90;;;;;;5127335;27;20667;-91
2021/12/13 09:57:04;;;;;;;6.40;1.63;;;22.40;99.90;;;;;;5129160;27;20567;-89
2021/12/13 09:59:40;;;;;;;7.75;1.88;;;22.40;99.90;;;;;;5111807;27;20196;-91
2021/12/13 10:02:19;;;;;;;6.30;1.70;;;22.20;99.90;;;;;;5126803;27;20268;-90
2021/12/13 10:04:54;;;;;;;8.55;1.92;;;22.30;99.90;;;;;;5127829;27;20213;-91
2021/12/13 10:07:34;;;;;;;7.80;1.98;;;22.20;99.90;;;;;;5129519;27;20194;-89
2021/12/13 10:10:08;;;;;;;7.82;1.75;;;22.20;99.90;;;;;;5127864;27;20218;-91
2021/12/13 10:12:44;;;;;;;3.75;1.55;;;22.20;99.90;;;;;;5128050;27;20742;-89
2021/12/13 10:15:19;;;;;;;4.47;1.40;;;22.10;99.90;;;;;;5128309;27;20218;-89
2021/12/13 10:17:55;;;;;;;7.10;1.50;;;22.10;99.90;;;;;;5123953;27;20202;-89
2021/12/13 10:20:37;;;;;;;7.07;1.45;;;22.20;99.90;;;;;;5125880;27;20657;-92
2021/12/13 10:23:11;;;;;;;5.63;1.52;;;22.10;99.90;;;;;;5125384;27;20225;-91
2021/12/13 10:25:44;;;;;;;4.50;1.27;;;22.10;99.90;;;;;;5128423;27;20190;-90
2021/12/13 10:28:21;;;;;;;8.00;1.65;;;22.10;99.90;;;;;;5127540;27;20637;-90
2021/12/13 10:30:58;;;;;;;6.72;1.40;;;22.10;99.90;;;;;;5124750;27;20203;-91
2021/12/13 10:33:32;;;;;;;5.53;1.40;;;22.00;99.90;;;;;;5127215;27;20194;-89
2021/12/13 10:36:05;;;;;;;5.80;1.77;;;22.00;99.90;;;;;;5122286;27;20305;-90
2021/12/13 10:38:39;;;;;;;7.55;1.75;;;22.00;99.90;;;;;;5127903;27;20206;-88
2021/12/13 10:41:15;;;;;;;7.88;1.85;;;22.00;99.90;;;;;;5137609;27;20193;-90
2021/12/13 10:43:50;;;;;;;5.32;1.40;;;22.00;99.90;;;;;;5131274;27;20676;-89
2021/12/13 10:46:31;;;;;;;4.00;1.25;;;22.00;99.90;;;;;;5105771;27;20205;-90
2021/12/13 10:49:11;;;;;;;4.90;1.40;;;22.00;99.90;;;;;;5128005;27;20209;-89
2021/12/13 10:51:45;;;;;;;7.97;1.50;;;21.90;99.90;;;;;;5125487;27;20208;-88
2021/12/13 10:57:09;;;;;;;5.60;1.55;;;21.90;99.90;;;;;;5125228;27;20238;-90
2021/12/13 10:59:43;;;;;;;6.10;1.50;;;21.80;99.90;;;;;;5125179;27;20239;-90
2021/12/13 11:02:18;;;;;;;7.38;1.48;;;21.90;99.90;;;;;;5118243;27;20200;-89
2021/12/13 11:04:53;;;;;;;4.70;1.40;;;21.80;99.90;;;;;;5116906;27;20269;-90
2021/12/13 11:07:25;;;;;;;8.77;1.58;;;21.80;99.90;;;;;;5099415;27;20202;-91
2021/12/13 11:10:00;;;;;;;4.68;1.20;;;21.80;99.90;;;;;;5117342;27;20255;-90
2021/12/13 11:12:34;;;;;;;4.68;1.30;;;21.80;99.90;;;;;;5117752;27;20197;-90
2021/12/13 11:15:09;;;;;;;8.30;1.50;;;21.80;99.90;;;;;;5117600;27;20197;-90
2021/12/13 11:17:41;;;;;;;5.95;1.60;;;21.80;99.90;;;;;;5115586;27;20202;-90
2021/12/13 11:20:20;;;;;;;8.43;1.63;;;21.80;99.90;;;;;;5120856;27;20194;-92
2021/12/13 11:22:52;;;;;;;4.55;1.38;;;21.80;99.90;;;;;;5116930;27;20316;-89
2021/12/13 11:25:27;;;;;;;9.27;1.33;;;21.80;99.90;;;;;;5115151;27;20224;-89
2021/12/13 11:27:58;;;;;;;5.18;1.30;;;21.70;99.90;;;;;;5118066;27;20202;-89
2021/12/13 11:30:38;;;;;;;7.00;1.55;;;21.70;99.90;;;;;;5116674;27;20677;-90
2021/12/13 11:33:44;;;;;;;5.63;1.40;;;21.70;99.90;;;;;;5115116;27;20195;-89
2021/12/13 11:36:58;;;;;;;8.93;1.50;;;21.60;99.90;;;;;;5105741;27;20213;-92
2021/12/13 11:40:03;;;;;;;6.93;1.60;;;21.60;99.90;;;;;;5100172;27;20211;-91
2021/12/13 11:43:13;;;;;;;8.73;1.70;;;21.60;99.90;;;;;;5139813;27;20731;-92
2021/12/13 11:46:32;;;;;;;5.32;1.55;;;21.60;99.90;;;;;;5133920;27;20247;-91
2021/12/13 11:49:41;;;;;;;6.72;1.63;;;21.60;99.90;;;;;;5089993;28;20190;-90
2021/12/13 11:52:43;;;;;;;6.32;1.40;;;21.50;99.90;;;;;;5115120;28;20202;-91
2021/12/13 11:55:51;;;;;;;5.65;1.55;;;21.50;99.90;;;;;;5076975;27;20209;-90
2021/12/13 11:58:46;;;;;;;4.93;1.45;;;21.50;99.90;;;;;;5153594;27;20215;-89
2021/12/13 12:02:03;;;;;;;3.85;1.27;;;21.50;99.90;;;;;;5146667;27;20572;-92
2021/12/13 12:05:18;;;;;;;7.18;1.63;;;21.50;99.90;;;;;;5065684;28;20278;-89
2021/12/13 12:08:26;;;;;;;7.03;1.50;;;21.40;99.90;;;;;;5056046;28;20196;-93
2021/12/13 12:11:31;;;;;;;5.78;1.52;;;21.40;99.90;;;;;;5134008;27;20724;-94
2021/12/13 12:14:09;;;;;;;5.43;1.65;;;21.50;99.90;;;;;;5104607;27;20210;-95
2021/12/13 12:16:43;;;;;;;5.70;1.35;;;21.50;99.90;;;;;;5135457;27;20258;-93
2021/12/13 12:19:42;;;;;;;7.38;1.58;;;21.50;99.90;;;;;;5144127;27;20193;-94
2021/12/13 12:22:17;;;;;;;8.20;1.48;;;21.50;99.90;;;;;;5100162;28;20728;-96
2021/12/13 12:24:53;;;;;;;8.32;1.55;;;21.50;99.90;;;;;;5122606;27;20237;-93
2021/12/13 12:27:32;;;;;;;3.63;1.20;;;21.30;99.90;;;;;;5134814;27;20213;-93
2021/12/13 12:30:06;;;;;;;6.50;1.42;;;21.30;99.90;;;;;;5118050;27;20200;-92
2021/12/13 12:32:39;;;;;;;6.47;1.63;;;21.20;99.90;;;;;;5116206;28;20637;-93
2021/12/13 12:35:14;;;;;;;11.25;1.88;;;21.20;99.90;;;;;;5122799;27;20218;-94
2021/12/13 12:38:19;;;;;;;5.78;1.33;;;21.20;99.90;;;;;;5113803;27;20205;-93
2021/12/13 12:41:02;;;;;;;6.65;1.90;;;21.20;99.90;;;;;;5113173;28;20655;-92
2021/12/13 12:43:40;;;;;;;7.82;1.85;;;21.10;99.90;;;;;;5127265;27;20232;-93
2021/12/13 12:46:14;;;;;;;6.22;1.67;;;21.10;99.90;;;;;;5131585;27;20193;-89
2021/12/13 12:48:47;;;;;;;9.50;1.85;;;21.00;99.90;;;;;;5130969;27;20202;-91
2021/12/13 12:51:21;;;;;;;4.50;1.50;;;20.90;99.90;;;;;;5125148;27;20202;-88
2021/12/13 12:53:56;;;;;;;8.35;2.00;;;20.80;99.90;;;;;;5106662;28;20716;-87
2021/12/13 12:56:31;;;;;;;10.20;2.42;;;20.80;99.90;;;;;;5129592;28;20197;-89
2021/12/13 12:59:10;;;;;;;7.85;1.67;;;20.80;99.90;;;;;;5112097;28;20537;-89
2021/12/13 13:01:44;;;;;;;4.38;1.38;;;20.70;99.90;;;;;;5120118;28;20198;-87
2021/12/13 13:04:19;;;;;;;9.98;2.00;;;20.70;99.90;;;;;;5112338;28;20849;-90
2021/12/13 13:07:04;;;;;;;6.03;1.75;;;20.70;99.90;;;;;;5125557;27;20202;-91
2021/12/13 13:10:02;;;;;;;8.07;1.80;;;20.60;99.90;;;;;;5109805;28;20194;-91
2021/12/13 13:12:38;;;;;;;9.07;1.80;;;20.60;99.90;;;;;;5130691;27;20664;-90
2021/12/13 13:15:16;;;;;;;7.63;1.67;;;20.60;99.90;;;;;;5113360;27;20197;-90
2021/12/13 13:17:50;;;;;;;6.53;1.70;;;20.60;99.90;;;;;;5149739;27;20201;-84
2021/12/13 13:20:24;;;;;;;5.90;1.98;;;20.60;99.90;;;;;;5137681;28;20368;-87
2021/12/13 13:22:57;;;;;;;8.35;1.73;;;20.50;99.90;;;;;;5131858;28;20182;-89
2021/12/13 13:25:33;;;;;;;7.43;1.58;;;20.50;99.90;;;;;;5115778;28;20220;-89
2021/12/13 13:28:07;;;;;;;5.95;1.73;;;20.50;99.90;;;;;;5131352;27;20198;-88
2021/12/13 13:30:46;;;;;;;7.40;1.80;;;20.50;99.90;;;;;;5111804;28;20236;-88
2021/12/13 13:33:19;;;;;;;5.43;1.70;;;20.40;99.90;;;;;;5111765;28;20718;-88
2021/12/13 13:35:50;;;;;;;6.45;1.90;;;20.50;99.90;;;;;;5121848;28;20280;-88
2021/12/13 13:38:22;;;;;;;7.88;1.90;;;20.40;99.90;;;;;;5108648;28;20194;-86
2021/12/13 13:40:54;;;;;;;5.57;1.83;;;20.40;99.90;;;;;;5137334;28;20194;-85
2021/12/13 13:43:30;;;;;;;5.88;1.63;;;20.40;99.90;;;;;;5142831;27;20200;-86
2021/12/13 13:46:03;;;;;;;7.50;1.70;;;20.40;99.90;;;;;;5123035;28;20205;-88
2021/12/13 13:48:37;;;;;;;8.80;2.00;;;20.40;99.90;;;;;;5123657;28;20563;-88
2021/12/13 13:51:09;;;;;;;6.97;1.50;;;20.30;99.90;;;;;;5131713;27;20571;-89